createdAt,value
2019-01-06T00:00:43.335Z,14.47
2019-01-06T00:03:37.980Z,23.00
2019-01-06T00:06:37.661Z,10.53
2019-01-06T00:09:35.880Z,19.63
2019-01-06T00:12:20.317Z,12.93
2019-01-06T00:15:21.098Z,17.73
2019-01-06T00:18:18.850Z,15.90
2019-01-06T00:21:06.189Z,14.53
2019-01-06T00:24:10.532Z,22.83
2019-01-06T00:26:58.641Z,13.03
2019-01-06T00:29:45.713Z,19.97
2019-01-06T00:32:39.839Z,20.13
2019-01-06T00:35:43.348Z,20.00
2019-01-06T00:38:30.528Z,17.63
2019-01-06T00:41:17.577Z,22.97
2019-01-06T00:44:21.294Z,16.10
2019-01-06T00:47:09.401Z,21.90
2019-01-06T00:50:04.025Z,22.73
2019-01-06T00:52:52.083Z,26.40
2019-01-06T00:55:39.465Z,16.23
2019-01-06T00:58:26.595Z,10.10
2019-01-06T01:01:32.982Z,21.93
2019-01-06T01:04:19.768Z,15.60
2019-01-06T01:07:23.286Z,15.17
2019-01-06T01:10:20.421Z,15.43
2019-01-06T01:13:08.005Z,17.80
2019-01-06T01:16:08.685Z,9.37
2019-01-06T01:18:55.785Z,12.60
2019-01-06T01:21:43.939Z,21.17
2019-01-06T01:24:27.978Z,16.60
2019-01-06T01:27:34.919Z,15.67
2019-01-06T01:30:23.387Z,17.40
2019-01-06T01:33:20.257Z,17.87
2019-01-06T01:36:07.103Z,17.00
2019-01-06T01:38:54.675Z,18.83
2019-01-06T01:41:58.526Z,16.37
2019-01-06T01:45:05.092Z,16.23
2019-01-06T01:47:59.640Z,20.63
2019-01-06T01:50:46.909Z,16.30
2019-01-06T01:53:44.249Z,13.40
2019-01-06T01:56:30.919Z,24.10
2019-01-06T01:59:22.422Z,33.10
2019-01-06T02:02:26.010Z,14.03
2019-01-06T02:05:07.412Z,11.43
2019-01-06T02:07:54.668Z,14.13
2019-01-06T02:10:42.391Z,9.03
2019-01-06T02:13:36.409Z,14.20
2019-01-06T02:16:23.621Z,17.90
2019-01-06T02:19:10.883Z,9.03
2019-01-06T02:21:59.015Z,9.37
2019-01-06T02:25:02.827Z,11.23
2019-01-06T02:27:51.124Z,14.43
2019-01-06T02:30:51.884Z,11.07
2019-01-06T02:33:42.839Z,8.37
2019-01-06T02:36:34.808Z,16.83
2019-01-06T02:39:25.978Z,22.90
2019-01-06T02:42:17.876Z,9.60
2019-01-06T02:45:05.533Z,8.23
2019-01-06T02:47:52.457Z,6.80
2019-01-06T02:50:46.141Z,7.15
2019-01-06T02:53:46.526Z,9.13
2019-01-06T02:56:40.804Z,4.90
2019-01-06T02:59:28.220Z,5.97
2019-01-06T03:02:34.876Z,8.50
2019-01-06T03:05:38.196Z,10.40
2019-01-06T03:08:25.366Z,7.70
2019-01-06T03:11:25.659Z,8.40
2019-01-06T03:14:08.501Z,6.77
2019-01-06T03:17:00.922Z,5.13
2019-01-06T03:19:47.743Z,5.40
2019-01-06T03:22:54.149Z,3.30
2019-01-06T03:25:41.177Z,8.03
2019-01-06T03:28:29.683Z,9.30
2019-01-06T03:31:26.832Z,10.73
2019-01-06T03:34:18.286Z,11.00
2019-01-06T03:37:09.310Z,10.57
2019-01-06T03:39:53.344Z,7.50
2019-01-06T03:42:41.540Z,8.23
2019-01-06T03:45:36.237Z,10.97
2019-01-06T03:48:23.645Z,7.63
2019-01-06T03:51:21.457Z,10.77
2019-01-06T03:54:24.698Z,14.60
2019-01-06T03:57:11.951Z,10.20
2019-01-06T04:00:07.795Z,10.17
2019-01-06T04:02:47.793Z,9.60
2019-01-06T04:05:48.228Z,16.03
2019-01-06T04:08:35.380Z,12.77
2019-01-06T04:11:32.588Z,13.77
2019-01-06T04:14:21.461Z,23.80
2019-01-06T04:17:08.403Z,13.67
2019-01-06T04:20:08.676Z,17.10
2019-01-06T04:22:55.861Z,19.00
2019-01-06T04:25:42.972Z,16.87
2019-01-06T04:28:34.264Z,22.10
2019-01-06T04:31:29.802Z,32.27
2019-01-06T04:34:21.533Z,16.30
2019-01-06T04:37:08.970Z,27.33
2019-01-06T04:40:09.426Z,20.57
2019-01-06T04:43:03.850Z,19.60
2019-01-06T04:45:51.992Z,21.20
2019-01-06T04:48:49.132Z,18.20
2019-01-06T04:51:35.996Z,18.07
2019-01-06T04:54:36.461Z,21.73
2019-01-06T04:57:33.380Z,29.57
2019-01-06T05:00:21.847Z,22.43
2019-01-06T05:03:25.146Z,19.33
2019-01-06T05:06:16.590Z,21.50
2019-01-06T05:09:03.825Z,14.77
2019-01-06T05:11:51.937Z,24.07
2019-01-06T05:14:40.877Z,24.80
2019-01-06T05:17:28.092Z,14.43
2019-01-06T05:20:22.392Z,27.50
2019-01-06T05:23:09.641Z,15.67
2019-01-06T05:26:00.971Z,16.60
2019-01-06T05:28:53.725Z,21.70
2019-01-06T05:31:40.972Z,16.10
2019-01-06T05:34:42.890Z,21.73
2019-01-06T05:37:36.821Z,19.50
2019-01-06T05:40:25.303Z,25.30
2019-01-06T05:43:12.625Z,29.67
2019-01-06T05:45:59.800Z,28.73
2019-01-06T05:49:06.469Z,33.83
2019-01-06T05:52:00.568Z,15.05
2019-01-06T05:54:54.628Z,21.57
2019-01-06T05:57:41.803Z,24.45
2019-01-06T06:00:32.937Z,29.20
2019-01-06T06:03:30.395Z,21.07
2019-01-06T06:06:21.735Z,18.83
2019-01-06T06:09:09.337Z,20.00
2019-01-06T06:12:09.499Z,19.83
2019-01-06T06:14:56.309Z,24.40
2019-01-06T06:17:50.729Z,11.77
2019-01-06T06:20:41.821Z,33.63
2019-01-06T06:23:30.498Z,21.17
2019-01-06T06:26:18.152Z,16.60
2019-01-06T06:29:15.617Z,27.63
2019-01-06T06:32:02.931Z,20.50
2019-01-06T06:34:59.835Z,24.63
2019-01-06T06:37:57.388Z,23.80
2019-01-06T06:40:55.261Z,12.53
2019-01-06T06:43:42.681Z,22.93
2019-01-06T06:46:29.983Z,13.43
2019-01-06T06:49:17.610Z,22.13
2019-01-06T06:51:57.318Z,14.33
2019-01-06T06:54:51.505Z,13.77
2019-01-06T06:58:15.142Z,17.55
2019-01-06T07:01:06.489Z,20.00
2019-01-06T07:04:02.315Z,8.57
2019-01-06T07:07:08.614Z,11.77
2019-01-06T07:09:55.091Z,9.83
2019-01-06T07:12:41.920Z,6.67
2019-01-06T07:15:29.018Z,11.50
2019-01-06T07:18:24.516Z,11.00
2019-01-06T07:21:11.604Z,12.53
2019-01-06T07:24:03.988Z,10.40
2019-01-06T07:26:51.158Z,12.00
2019-01-06T07:29:39.223Z,10.30
2019-01-06T07:32:36.422Z,12.97
2019-01-06T07:35:23.623Z,11.53
2019-01-06T07:38:30.168Z,13.97
2019-01-06T07:41:30.687Z,12.17
2019-01-06T07:44:29.185Z,10.93
2019-01-06T07:47:17.290Z,8.77
2019-01-06T07:50:04.635Z,4.17
2019-01-06T07:52:55.591Z,8.70
2019-01-06T07:55:42.801Z,8.10
2019-01-06T07:58:40.375Z,9.83
2019-01-06T08:01:27.761Z,5.63
2019-01-06T08:04:19.393Z,10.23
2019-01-06T08:07:08.017Z,5.57
2019-01-06T08:09:55.434Z,6.80
2019-01-06T08:12:46.281Z,10.77
2019-01-06T08:15:33.014Z,8.53
2019-01-06T08:18:36.713Z,9.37
2019-01-06T08:21:31.400Z,13.80
2019-01-06T08:24:18.888Z,8.93
2019-01-06T08:27:12.760Z,8.40
2019-01-06T08:30:07.890Z,6.70
2019-01-06T08:32:55.225Z,6.50
2019-01-06T08:35:42.301Z,6.67
2019-01-06T08:38:36.677Z,7.90
2019-01-06T08:41:27.790Z,6.50
2019-01-06T08:44:14.645Z,8.20
2019-01-06T08:47:17.864Z,12.63
2019-01-06T08:50:05.022Z,10.90
2019-01-06T08:52:53.639Z,11.13
2019-01-06T08:55:44.511Z,17.10
2019-01-06T08:58:33.425Z,13.03
2019-01-06T09:01:40.328Z,10.20
2019-01-06T09:04:31.263Z,16.60
2019-01-06T09:07:19.032Z,17.37
2019-01-06T09:10:06.060Z,31.73
2019-01-06T09:13:00.397Z,28.93
2019-01-06T09:15:47.454Z,27.03
2019-01-06T09:18:39.299Z,26.23
2019-01-06T09:21:24.301Z,18.27
2019-01-06T09:24:06.118Z,18.20
2019-01-06T09:26:57.460Z,25.03
2019-01-06T09:29:46.382Z,20.50
2019-01-06T09:32:49.715Z,19.53
2019-01-06T09:35:36.785Z,30.63
2019-01-06T09:38:43.196Z,30.90
2019-01-06T09:41:30.287Z,21.57
2019-01-06T09:44:37.022Z,15.90
2019-01-06T09:47:27.524Z,25.77
2019-01-06T09:50:28.421Z,13.93
2019-01-06T09:53:19.601Z,20.17
2019-01-06T09:56:10.923Z,18.30
2019-01-06T09:58:58.627Z,18.10
2019-01-06T10:01:46.787Z,13.67
2019-01-06T10:04:35.112Z,20.10
2019-01-06T10:07:23.585Z,20.50
2019-01-06T10:10:10.997Z,19.47
2019-01-06T10:12:58.150Z,18.07
2019-01-06T10:15:49.419Z,9.27
2019-01-06T10:18:36.888Z,17.90
2019-01-06T10:21:28.191Z,22.00
2019-01-06T10:24:22.469Z,17.10
2019-01-06T10:27:10.920Z,23.00
2019-01-06T10:30:17.168Z,15.50
2019-01-06T10:33:08.363Z,18.37
2019-01-06T10:35:55.548Z,28.20
2019-01-06T10:38:50.111Z,17.40
2019-01-06T10:41:50.975Z,15.83
2019-01-06T10:44:48.464Z,24.53
2019-01-06T10:47:35.305Z,16.50
2019-01-06T10:50:22.579Z,21.73
2019-01-06T10:53:22.796Z,30.43
2019-01-06T10:56:26.207Z,12.93
2019-01-06T10:59:32.754Z,22.67
2019-01-06T11:02:23.634Z,20.63
2019-01-06T11:05:10.373Z,16.13
2019-01-06T11:08:13.766Z,17.63
2019-01-06T11:11:00.786Z,16.50
2019-01-06T11:14:07.659Z,19.70
2019-01-06T11:16:55.998Z,11.05
2019-01-06T11:19:47.886Z,18.40
2019-01-06T11:22:36.107Z,15.00
2019-01-06T11:25:32.414Z,18.27
2019-01-06T11:28:19.634Z,10.43
2019-01-06T11:31:06.659Z,11.25
2019-01-06T11:33:53.873Z,19.03
2019-01-06T11:36:41.995Z,13.53
2019-01-06T11:39:29.491Z,13.33
2019-01-06T11:42:21.396Z,15.25
2019-01-06T11:45:05.889Z,14.63
2019-01-06T11:47:53.098Z,8.83
2019-01-06T11:50:47.568Z,6.90
2019-01-06T11:53:26.414Z,8.77
2019-01-06T11:56:17.473Z,15.83
2019-01-06T11:59:04.539Z,9.60
2019-01-06T12:01:58.705Z,11.20
2019-01-06T12:04:42.262Z,12.33
2019-01-06T12:07:33.638Z,12.87
2019-01-06T12:10:40.850Z,11.87
2019-01-06T12:13:40.880Z,10.10
2019-01-06T12:16:35.132Z,24.13
2019-01-06T12:19:38.363Z,16.10
2019-01-06T12:22:25.846Z,10.67
2019-01-06T12:25:11.028Z,8.67
2019-01-06T12:28:14.566Z,14.13
2019-01-06T12:31:01.386Z,10.77
2019-01-06T12:33:48.620Z,31.03
2019-01-06T12:36:36.871Z,9.70
2019-01-06T12:39:24.690Z,7.00
2019-01-06T12:42:31.600Z,10.77
2019-01-06T12:45:25.201Z,12.53
2019-01-06T12:48:13.350Z,8.83
2019-01-06T12:51:04.726Z,7.80
2019-01-06T12:53:52.214Z,20.93
2019-01-06T12:56:39.373Z,8.80
2019-01-06T12:59:39.538Z,7.30
2019-01-06T13:02:37.613Z,3.55
2019-01-06T13:05:38.000Z,9.67
2019-01-06T13:08:24.211Z,9.90
2019-01-06T13:11:11.498Z,5.30
2019-01-06T13:13:58.533Z,7.40
2019-01-06T13:16:58.742Z,5.80
2019-01-06T13:19:53.510Z,5.10
2019-01-06T13:22:42.030Z,5.87
2019-01-06T13:25:33.188Z,13.73
2019-01-06T13:28:30.139Z,10.77
2019-01-06T13:31:18.245Z,15.50
2019-01-06T13:34:06.338Z,24.70
2019-01-06T13:36:53.512Z,10.90
2019-01-06T13:39:44.536Z,16.67
2019-01-06T13:42:32.257Z,16.67
2019-01-06T13:45:35.270Z,12.43
2019-01-06T13:48:29.762Z,25.70
2019-01-06T13:51:36.187Z,15.73
2019-01-06T13:54:29.955Z,10.83
2019-01-06T13:57:12.314Z,14.00
2019-01-06T14:00:06.825Z,15.77
2019-01-06T14:02:51.534Z,15.37
2019-01-06T14:05:38.186Z,12.83
2019-01-06T14:08:24.958Z,11.53
2019-01-06T14:11:12.216Z,12.97
2019-01-06T14:14:03.452Z,22.73
2019-01-06T14:17:09.856Z,13.70
2019-01-06T14:20:04.353Z,14.03
2019-01-06T14:22:51.001Z,14.93
2019-01-06T14:25:32.393Z,20.77
2019-01-06T14:28:26.454Z,11.70
2019-01-06T14:31:15.166Z,13.30
2019-01-06T14:34:16.616Z,20.73
2019-01-06T14:37:06.651Z,16.33
2019-01-06T14:39:44.474Z,26.07
2019-01-06T14:42:25.114Z,23.20
2019-01-06T14:45:12.173Z,17.47
2019-01-06T14:48:00.729Z,18.00
2019-01-06T14:50:47.687Z,30.43
2019-01-06T14:53:45.982Z,15.60
2019-01-06T14:56:32.870Z,15.63
2019-01-06T14:59:20.196Z,22.97
2019-01-06T15:02:07.013Z,15.40
2019-01-06T15:04:58.200Z,15.27
2019-01-06T15:07:55.121Z,15.13
2019-01-06T15:10:55.623Z,19.00
2019-01-06T15:13:43.386Z,16.13
2019-01-06T15:16:30.514Z,18.10
2019-01-06T15:19:17.617Z,22.20
2019-01-06T15:22:05.116Z,17.00
2019-01-06T15:24:56.287Z,15.50
2019-01-06T15:27:59.607Z,14.53
2019-01-06T15:30:53.885Z,18.50
2019-01-06T15:33:40.749Z,13.70
2019-01-06T15:36:35.338Z,16.90
2019-01-06T15:39:27.527Z,23.77
2019-01-06T15:42:18.512Z,16.27
2019-01-06T15:45:05.841Z,45.03
2019-01-06T15:47:54.321Z,24.17
2019-01-06T15:50:41.987Z,27.23
2019-01-06T15:53:25.635Z,20.30
2019-01-06T15:56:13.229Z,14.93
2019-01-06T15:59:16.729Z,19.93
2019-01-06T16:02:05.397Z,16.62
2019-01-06T16:05:05.916Z,18.30
2019-01-06T16:07:54.679Z,21.17
2019-01-06T16:10:52.198Z,30.13
2019-01-06T16:13:52.437Z,30.07
2019-01-06T16:16:40.523Z,19.42
2019-01-06T16:19:28.951Z,16.37
2019-01-06T16:22:35.563Z,22.50
2019-01-06T16:25:42.548Z,17.83
2019-01-06T16:28:29.423Z,17.17
2019-01-06T16:31:17.597Z,20.27
2019-01-06T16:34:05.158Z,18.93
2019-01-06T16:36:52.216Z,16.83
2019-01-06T16:39:39.658Z,14.73
2019-01-06T16:42:27.768Z,16.13
2019-01-06T16:45:24.881Z,19.07
2019-01-06T16:48:31.974Z,15.33
2019-01-06T16:51:18.773Z,14.87
2019-01-06T16:54:15.771Z,16.13
2019-01-06T16:57:02.751Z,22.97
2019-01-06T16:59:57.808Z,16.37
2019-01-06T17:03:04.718Z,24.80
2019-01-06T17:05:52.373Z,18.83
2019-01-06T17:08:38.367Z,18.03
2019-01-06T17:11:35.716Z,38.90
2019-01-06T17:14:22.602Z,30.03
2019-01-06T17:17:10.004Z,23.20
2019-01-06T17:20:07.430Z,19.40
2019-01-06T17:22:58.707Z,22.27
2019-01-06T17:25:53.022Z,20.93
2019-01-06T17:28:41.569Z,19.17
2019-01-06T17:31:32.679Z,25.90
2019-01-06T17:34:19.898Z,23.37
2019-01-06T17:37:14.005Z,23.87
2019-01-06T17:40:09.196Z,20.23
2019-01-06T17:42:57.445Z,21.47
2019-01-06T17:45:44.655Z,26.83
2019-01-06T17:48:48.716Z,14.83
2019-01-06T17:51:35.699Z,15.77
2019-01-06T17:54:36.950Z,16.60
2019-01-06T17:57:21.117Z,24.27
2019-01-06T18:00:12.962Z,18.47
2019-01-06T18:03:00.080Z,20.87
2019-01-06T18:05:42.926Z,17.20
2019-01-06T18:08:43.257Z,15.67
2019-01-06T18:11:30.815Z,17.90
2019-01-06T18:14:24.583Z,18.57
2019-01-06T18:17:12.796Z,18.00
2019-01-06T18:20:10.061Z,18.83
2019-01-06T18:22:57.409Z,13.07
2019-01-06T18:25:44.322Z,10.70
2019-01-06T18:28:31.531Z,16.60
2019-01-06T18:31:18.778Z,16.00
2019-01-06T18:34:13.060Z,13.37
2019-01-06T18:37:19.753Z,21.23
2019-01-06T18:40:14.182Z,14.67
2019-01-06T18:43:18.257Z,24.47
2019-01-06T18:46:05.125Z,17.23
2019-01-06T18:48:48.549Z,16.73
2019-01-06T18:51:54.023Z,24.55
2019-01-06T18:54:45.596Z,18.93
2019-01-06T18:57:37.202Z,18.37
2019-01-06T19:00:35.580Z,14.73
2019-01-06T19:03:22.997Z,16.10
2019-01-06T19:06:11.223Z,25.60
2019-01-06T19:08:59.131Z,20.73
2019-01-06T19:11:46.158Z,14.00
2019-01-06T19:14:34.855Z,18.80
2019-01-06T19:17:40.725Z,19.40
2019-01-06T19:20:28.967Z,19.30
2019-01-06T19:23:23.262Z,19.27
2019-01-06T19:26:10.621Z,21.87
2019-01-06T19:29:03.011Z,23.80
2019-01-06T19:31:55.291Z,28.20
2019-01-06T19:34:52.846Z,22.70
2019-01-06T19:37:44.700Z,19.43
2019-01-06T19:40:49.246Z,18.90
2019-01-06T19:43:39.232Z,23.57
2019-01-06T19:46:30.408Z,28.77
2019-01-06T19:49:18.689Z,23.80
2019-01-06T19:52:26.392Z,25.08
2019-01-06T19:55:24.877Z,25.00
2019-01-06T19:58:20.194Z,23.70
2019-01-06T20:01:09.646Z,23.87
2019-01-06T20:04:01.601Z,22.53
2019-01-06T20:06:52.404Z,24.50
2019-01-06T20:09:54.889Z,31.70
2019-01-06T20:12:53.881Z,24.30
2019-01-06T20:15:52.163Z,24.57
2019-01-06T20:18:35.682Z,22.90
2019-01-06T20:21:35.662Z,30.90
2019-01-06T20:24:23.654Z,23.03
2019-01-06T20:27:22.247Z,36.63
2019-01-06T20:30:12.129Z,33.50
2019-01-06T20:33:04.414Z,26.50
2019-01-06T20:35:52.105Z,34.13
2019-01-06T20:38:46.670Z,27.33
2019-01-06T20:41:33.618Z,26.70
2019-01-06T20:44:20.883Z,23.93
2019-01-06T20:47:11.858Z,28.27
2019-01-06T20:50:03.882Z,30.33
2019-01-06T20:53:10.432Z,46.50
2019-01-06T20:56:07.927Z,30.55
2019-01-06T20:59:14.529Z,36.53
2019-01-06T21:02:14.878Z,40.60
2019-01-06T21:05:03.327Z,31.27
2019-01-06T21:07:50.599Z,31.17
2019-01-06T21:10:41.810Z,38.03
2019-01-06T21:13:28.542Z,35.93
2019-01-06T21:16:23.402Z,35.83
2019-01-06T21:19:11.196Z,31.67
2019-01-06T21:22:05.106Z,31.80
2019-01-06T21:24:52.246Z,39.00
2019-01-06T21:27:40.381Z,34.23
2019-01-06T21:30:40.865Z,32.00
2019-01-06T21:33:47.463Z,32.50
2019-01-06T21:36:34.894Z,29.93
2019-01-06T21:39:38.682Z,36.33
2019-01-06T21:42:39.215Z,30.27
2019-01-06T21:45:36.912Z,29.75
2019-01-06T21:48:27.969Z,34.17
2019-01-06T21:51:16.085Z,32.90
2019-01-06T21:54:04.174Z,31.63
2019-01-06T21:56:51.356Z,31.43
2019-01-06T21:59:38.763Z,39.30
2019-01-06T22:02:26.257Z,32.57
2019-01-06T22:05:13.721Z,35.20
2019-01-06T22:07:56.942Z,38.03
2019-01-06T22:10:57.080Z,40.60
2019-01-06T22:13:48.404Z,30.43
2019-01-06T22:16:35.334Z,43.80
2019-01-06T22:19:35.640Z,36.87
2019-01-06T22:22:29.890Z,33.30
2019-01-06T22:25:16.458Z,36.90
2019-01-06T22:28:07.404Z,34.57
2019-01-06T22:30:54.652Z,35.63
2019-01-06T22:34:00.983Z,36.73
2019-01-06T22:37:04.034Z,42.23
2019-01-06T22:40:10.430Z,42.33
2019-01-06T22:42:57.380Z,38.63
2019-01-06T22:45:57.419Z,43.43
2019-01-06T22:48:49.676Z,38.53
2019-01-06T22:51:41.298Z,44.80
2019-01-06T22:54:28.414Z,36.87
2019-01-06T22:57:11.894Z,38.50
2019-01-06T22:59:59.110Z,42.67
2019-01-06T23:02:56.352Z,44.27
2019-01-06T23:05:47.701Z,44.80
2019-01-06T23:08:34.543Z,44.70
2019-01-06T23:11:28.847Z,47.20
2019-01-06T23:14:12.275Z,44.20
2019-01-06T23:16:59.481Z,47.10
2019-01-06T23:19:57.064Z,52.63
2019-01-06T23:22:44.630Z,47.80
2019-01-06T23:25:31.343Z,48.33
2019-01-06T23:28:25.883Z,45.73
2019-01-06T23:31:29.415Z,46.83
2019-01-06T23:34:23.492Z,48.23
2019-01-06T23:37:10.752Z,50.77
2019-01-06T23:40:14.820Z,44.87
2019-01-06T23:43:02.152Z,43.47
2019-01-06T23:45:48.998Z,43.53
2019-01-06T23:48:38.103Z,43.57
2019-01-06T23:51:32.589Z,39.90
2019-01-06T23:54:23.634Z,43.20
2019-01-06T23:57:09.903Z,43.20
